createdAt,value
2023-02-11T00:01:43.724Z,6.70
2023-02-11T00:04:14.090Z,6.80
2023-02-11T00:06:43.294Z,6.80
2023-02-11T00:09:12.793Z,6.80
2023-02-11T00:11:43.037Z,6.80
2023-02-11T00:14:14.008Z,6.80
2023-02-11T00:16:43.444Z,6.90
2023-02-11T00:19:14.264Z,6.90
2023-02-11T00:21:43.247Z,6.90
2023-02-11T00:24:12.876Z,6.90
2023-02-11T00:26:41.936Z,6.90
2023-02-11T00:29:12.082Z,6.90
2023-02-11T00:31:42.718Z,6.90
2023-02-11T00:34:11.835Z,6.90
2023-02-11T00:36:42.893Z,6.90
2023-02-11T00:39:11.963Z,6.90
2023-02-11T00:41:40.965Z,6.90
2023-02-11T00:44:09.903Z,7.00
2023-02-11T00:46:38.830Z,7.00
2023-02-11T00:49:08.166Z,7.00
2023-02-11T00:51:37.200Z,7.00
2023-02-11T00:54:07.911Z,7.00
2023-02-11T00:56:37.136Z,7.00
2023-02-11T00:59:06.368Z,7.00
2023-02-11T01:01:36.116Z,7.00
2023-02-11T01:04:05.420Z,6.90
2023-02-11T01:06:34.441Z,6.90
2023-02-11T01:09:03.737Z,6.90
2023-02-11T01:11:35.297Z,6.90
2023-02-11T01:14:04.522Z,7.00
2023-02-11T01:16:33.862Z,7.00
2023-02-11T01:19:03.012Z,7.00
2023-02-11T01:21:32.115Z,7.00
2023-02-11T01:24:01.178Z,7.00
2023-02-11T01:26:30.259Z,7.00
2023-02-11T01:29:02.408Z,7.00
2023-02-11T01:31:33.908Z,7.00
2023-02-11T01:34:02.973Z,6.90
2023-02-11T01:36:32.124Z,6.90
2023-02-11T01:39:03.536Z,6.90
2023-02-11T01:41:35.702Z,6.90
2023-02-11T01:44:29.311Z,6.90
2023-02-11T01:46:58.536Z,7.00
2023-02-11T01:49:32.011Z,7.00
2023-02-11T01:52:03.662Z,7.00
2023-02-11T01:54:54.674Z,6.90
2023-02-11T01:57:26.812Z,6.90
2023-02-11T02:00:08.668Z,6.80
2023-02-11T02:02:49.167Z,6.80
2023-02-11T02:05:26.344Z,6.80
2023-02-11T02:08:02.524Z,6.80
2023-02-11T02:10:32.954Z,6.80
2023-02-11T02:13:01.949Z,6.70
2023-02-11T02:15:35.170Z,6.80
2023-02-11T02:18:13.076Z,6.80
2023-02-11T02:21:32.302Z,6.80
2023-02-11T02:24:29.097Z,6.80
2023-02-11T02:27:22.804Z,6.80
2023-02-11T02:30:29.059Z,6.80
2023-02-11T02:33:22.475Z,6.80
2023-02-11T02:36:00.189Z,6.70
2023-02-11T02:38:34.953Z,6.70
2023-02-11T02:41:07.801Z,6.70
2023-02-11T02:43:38.096Z,6.70
2023-02-11T02:46:18.093Z,6.70
2023-02-11T02:48:50.449Z,6.70
2023-02-11T02:51:33.865Z,6.70
2023-02-11T02:54:23.543Z,6.70
2023-02-11T02:56:58.590Z,6.70
2023-02-11T02:59:43.300Z,6.70
2023-02-11T03:02:19.673Z,6.70
2023-02-11T03:04:58.654Z,6.70
2023-02-11T03:07:34.450Z,6.70
2023-02-11T03:10:10.254Z,6.70
2023-02-11T03:12:41.378Z,6.60
2023-02-11T03:15:12.009Z,6.60
2023-02-11T03:17:44.524Z,6.60
2023-02-11T03:20:19.002Z,6.60
2023-02-11T03:22:52.448Z,6.60
2023-02-11T03:25:22.632Z,6.70
2023-02-11T03:27:58.096Z,6.70
2023-02-11T03:30:29.980Z,6.70
2023-02-11T03:33:08.189Z,6.70
2023-02-11T03:35:42.964Z,6.70
2023-02-11T03:38:18.714Z,6.70
2023-02-11T03:40:48.758Z,6.70
2023-02-11T03:43:21.371Z,6.70
2023-02-11T03:45:53.392Z,6.70
2023-02-11T03:48:27.134Z,6.70
2023-02-11T03:50:59.719Z,6.70
2023-02-11T03:53:28.757Z,6.70
2023-02-11T03:56:00.599Z,6.70
2023-02-11T03:58:29.594Z,6.70
2023-02-11T04:00:58.742Z,6.70
2023-02-11T04:03:28.071Z,6.70
2023-02-11T04:05:58.759Z,6.60
2023-02-11T04:08:28.066Z,6.60
2023-02-11T04:10:56.877Z,6.70
2023-02-11T04:13:26.296Z,6.70
2023-02-11T04:15:55.105Z,6.70
2023-02-11T04:18:24.553Z,6.60
2023-02-11T04:20:53.919Z,6.60
2023-02-11T04:23:24.738Z,6.60
2023-02-11T04:25:54.782Z,6.60
2023-02-11T04:28:24.001Z,6.50
2023-02-11T04:30:53.506Z,6.50
2023-02-11T04:33:22.704Z,6.60
2023-02-11T04:35:52.174Z,6.60
2023-02-11T04:38:24.958Z,6.60
2023-02-11T04:40:56.622Z,6.60
2023-02-11T04:43:26.528Z,6.60
2023-02-11T04:45:58.896Z,6.60
2023-02-11T04:48:28.093Z,6.60
2023-02-11T04:50:57.572Z,6.60
2023-02-11T04:53:26.864Z,6.60
2023-02-11T04:55:57.446Z,6.60
2023-02-11T04:58:26.484Z,6.60
2023-02-11T05:00:55.481Z,6.60
2023-02-11T05:03:24.682Z,6.60
2023-02-11T05:05:53.823Z,6.60
2023-02-11T05:08:22.959Z,6.60
2023-02-11T05:10:52.160Z,6.60
2023-02-11T05:13:22.598Z,6.50
2023-02-11T05:15:51.953Z,6.40
2023-02-11T05:18:21.234Z,6.40
2023-02-11T05:20:50.198Z,6.40
2023-02-11T05:23:20.098Z,6.30
2023-02-11T05:25:49.318Z,6.30
2023-02-11T05:28:19.678Z,6.30
2023-02-11T05:30:50.744Z,6.20
2023-02-11T05:33:19.883Z,6.20
2023-02-11T05:35:49.566Z,6.30
2023-02-11T05:38:18.943Z,6.30
2023-02-11T05:40:47.858Z,6.30
2023-02-11T05:43:16.909Z,6.20
2023-02-11T05:45:47.120Z,6.20
2023-02-11T05:48:18.707Z,6.20
2023-02-11T05:50:48.816Z,6.20
2023-02-11T05:53:18.949Z,6.20
2023-02-11T05:55:48.732Z,6.20
2023-02-11T05:58:17.875Z,6.20
2023-02-11T06:00:47.629Z,6.20
2023-02-11T06:03:18.216Z,6.20
2023-02-11T06:05:48.162Z,6.20
2023-02-11T06:08:17.620Z,6.20
2023-02-11T06:10:47.079Z,6.20
2023-02-11T06:13:18.851Z,6.20
2023-02-11T06:15:56.905Z,6.20
2023-02-11T06:18:28.204Z,6.20
2023-02-11T06:20:57.625Z,6.20
2023-02-11T06:23:30.156Z,6.20
2023-02-11T06:26:04.211Z,6.20
2023-02-11T06:28:33.814Z,6.20
2023-02-11T06:31:08.524Z,6.30
2023-02-11T06:33:39.583Z,6.30
2023-02-11T06:36:16.244Z,6.30
2023-02-11T06:38:45.540Z,6.30
2023-02-11T06:41:15.853Z,6.30
2023-02-11T06:43:45.359Z,6.30
2023-02-11T06:46:16.236Z,6.30
2023-02-11T06:48:46.873Z,6.30
2023-02-11T06:51:17.353Z,6.30
2023-02-11T06:53:47.651Z,6.40
2023-02-11T06:56:19.476Z,6.40
2023-02-11T06:58:49.936Z,6.40
2023-02-11T07:01:18.967Z,6.40
2023-02-11T07:03:50.386Z,6.50
2023-02-11T07:06:21.497Z,6.50
2023-02-11T07:08:51.304Z,6.50
2023-02-11T07:11:21.966Z,6.50
2023-02-11T07:13:53.118Z,6.50
2023-02-11T07:16:23.155Z,6.50
2023-02-11T07:18:54.721Z,6.50
2023-02-11T07:21:25.580Z,6.60
2023-02-11T07:23:55.073Z,6.60
2023-02-11T07:26:26.992Z,6.60
2023-02-11T07:28:55.926Z,6.60
2023-02-11T07:31:26.445Z,6.60
2023-02-11T07:33:58.711Z,6.60
2023-02-11T07:36:28.890Z,6.60
2023-02-11T07:38:58.244Z,6.70
2023-02-11T07:41:30.096Z,6.70
2023-02-11T07:43:59.245Z,6.70
2023-02-11T07:46:29.269Z,6.60
2023-02-11T07:49:00.200Z,6.60
2023-02-11T07:51:31.191Z,6.70
2023-02-11T07:54:01.874Z,6.70
2023-02-11T07:56:32.548Z,6.70
2023-02-11T07:59:05.423Z,6.70
2023-02-11T08:01:35.263Z,6.70
2023-02-11T08:04:06.604Z,6.70
2023-02-11T08:06:36.887Z,6.70
2023-02-11T08:09:09.203Z,6.80
2023-02-11T08:11:38.009Z,6.80
2023-02-11T08:14:07.330Z,6.80
2023-02-11T08:16:39.368Z,6.90
2023-02-11T08:19:14.733Z,6.90
2023-02-11T08:21:45.495Z,6.90
2023-02-11T08:24:14.950Z,6.90
2023-02-11T08:26:44.911Z,7.00
2023-02-11T08:29:15.936Z,7.00
2023-02-11T08:31:46.594Z,7.00
2023-02-11T08:34:19.447Z,7.10
2023-02-11T08:36:50.070Z,7.10
2023-02-11T08:39:21.220Z,7.10
2023-02-11T08:41:51.978Z,7.10
2023-02-11T08:44:22.153Z,7.20
2023-02-11T08:46:51.599Z,7.20
2023-02-11T08:49:22.623Z,7.20
2023-02-11T08:51:51.844Z,7.30
2023-02-11T08:54:20.861Z,7.30
2023-02-11T08:56:53.428Z,7.30
2023-02-11T08:59:23.808Z,7.30
2023-02-11T09:01:53.283Z,7.40
2023-02-11T09:04:24.499Z,7.40
2023-02-11T09:06:53.352Z,7.50
2023-02-11T09:09:22.835Z,7.50
2023-02-11T09:11:52.165Z,7.60
2023-02-11T09:14:24.264Z,7.60
2023-02-11T09:16:53.826Z,7.70
2023-02-11T09:19:24.959Z,7.70
2023-02-11T09:21:53.825Z,7.70
2023-02-11T09:24:22.965Z,7.70
2023-02-11T09:26:52.226Z,7.80
2023-02-11T09:29:31.394Z,7.80
2023-02-11T09:32:00.470Z,7.90
2023-02-11T09:34:31.243Z,7.90
2023-02-11T09:37:00.739Z,7.80
2023-02-11T09:39:30.105Z,7.80
2023-02-11T09:42:12.547Z,7.80
2023-02-11T09:44:41.985Z,7.80
2023-02-11T09:47:24.509Z,8.00
2023-02-11T09:49:58.484Z,8.10
2023-02-11T09:52:35.335Z,8.10
2023-02-11T09:55:08.868Z,8.20
2023-02-11T09:57:39.542Z,8.20
2023-02-11T10:00:22.090Z,8.30
2023-02-11T10:03:28.125Z,8.40
2023-02-11T10:06:25.214Z,8.40
2023-02-11T10:09:04.388Z,8.40
2023-02-11T10:11:42.092Z,8.40
2023-02-11T10:14:28.338Z,8.50
2023-02-11T10:17:08.103Z,8.50
2023-02-11T10:19:50.030Z,8.50
2023-02-11T10:22:24.849Z,8.60
2023-02-11T10:24:58.796Z,8.40
2023-02-11T10:27:35.596Z,8.50
2023-02-11T10:30:08.612Z,8.50
2023-02-11T10:32:45.343Z,8.50
2023-02-11T10:35:18.574Z,8.60
2023-02-11T10:37:49.903Z,8.50
2023-02-11T10:40:23.605Z,8.50
2023-02-11T10:42:55.779Z,8.50
2023-02-11T10:45:30.200Z,8.60
2023-02-11T10:47:59.834Z,8.60
2023-02-11T10:50:31.360Z,8.60
2023-02-11T10:53:21.340Z,8.60
2023-02-11T10:55:56.424Z,8.70
2023-02-11T10:58:28.538Z,8.70
2023-02-11T11:01:00.618Z,8.70
2023-02-11T11:03:34.701Z,8.70
2023-02-11T11:06:05.755Z,8.70
2023-02-11T11:08:46.428Z,8.80
2023-02-11T11:11:18.469Z,8.90
2023-02-11T11:13:58.383Z,8.80
2023-02-11T11:16:28.754Z,8.90
2023-02-11T11:19:23.143Z,8.80
2023-02-11T11:21:54.682Z,8.90
2023-02-11T11:24:31.138Z,8.90
2023-02-11T11:27:03.708Z,9.00
2023-02-11T11:29:36.986Z,9.00
2023-02-11T11:32:09.180Z,8.90
2023-02-11T11:34:40.777Z,9.00
2023-02-11T11:37:16.306Z,8.90
2023-02-11T11:39:57.993Z,9.00
2023-02-11T11:42:32.225Z,9.00
2023-02-11T11:45:03.362Z,9.00
2023-02-11T11:47:41.669Z,9.00
2023-02-11T11:50:29.498Z,9.10
2023-02-11T11:53:04.674Z,9.20
2023-02-11T11:55:41.979Z,9.20
2023-02-11T11:58:16.240Z,9.20
2023-02-11T12:00:55.269Z,9.30
2023-02-11T12:04:12.269Z,9.30
2023-02-11T12:06:55.006Z,9.30
2023-02-11T12:09:32.102Z,9.40
2023-02-11T12:12:17.445Z,9.40
2023-02-11T12:14:57.124Z,9.30
2023-02-11T12:17:43.622Z,9.40
2023-02-11T12:20:29.325Z,9.30
2023-02-11T12:23:23.775Z,9.30
2023-02-11T12:25:59.584Z,9.50
2023-02-11T12:28:40.321Z,9.50
2023-02-11T12:31:26.186Z,9.60
2023-02-11T12:34:26.418Z,9.70
2023-02-11T12:37:08.211Z,9.70
2023-02-11T12:39:46.482Z,9.60
2023-02-11T12:43:00.861Z,9.60
2023-02-11T12:46:04.786Z,9.70
2023-02-11T12:48:49.678Z,9.80
2023-02-11T12:51:27.513Z,9.70
2023-02-11T12:54:23.686Z,9.70
2023-02-11T12:57:00.269Z,9.50
2023-02-11T13:00:29.077Z,9.40
2023-02-11T13:03:20.499Z,9.40
2023-02-11T13:05:54.129Z,9.50
2023-02-11T13:08:29.892Z,9.50
2023-02-11T13:11:01.065Z,9.60
2023-02-11T13:13:34.747Z,9.70
2023-02-11T13:16:08.108Z,9.60
2023-02-11T13:18:48.468Z,9.60
2023-02-11T13:21:46.576Z,9.60
2023-02-11T13:24:24.114Z,9.60
2023-02-11T13:27:00.325Z,9.80
2023-02-11T13:29:37.723Z,9.80
2023-02-11T13:32:11.462Z,9.90
2023-02-11T13:35:26.708Z,9.80
2023-02-11T13:37:55.466Z,9.70
2023-02-11T13:40:27.509Z,9.80
2023-02-11T13:42:58.521Z,9.90
2023-02-11T13:45:32.406Z,9.90
2023-02-11T13:48:03.673Z,9.90
2023-02-11T13:50:39.275Z,10.00
2023-02-11T13:53:09.188Z,9.90
2023-02-11T13:55:38.342Z,9.90
2023-02-11T13:58:36.027Z,9.80
2023-02-11T14:01:04.717Z,9.80
2023-02-11T14:03:53.314Z,9.80
2023-02-11T14:06:43.933Z,9.80
2023-02-11T14:09:42.559Z,9.80
2023-02-11T14:12:33.880Z,9.80
2023-02-11T14:15:33.850Z,9.80
2023-02-11T14:18:02.689Z,9.80
2023-02-11T14:20:38.362Z,9.80
2023-02-11T14:47:27.122Z,10.00
2023-02-11T14:54:36.309Z,10.00
2023-02-11T16:24:07.892Z,9.40
2023-02-11T17:46:14.727Z,8.80
2023-02-11T21:47:20.901Z,8.40
